Time;durP1;ratioP1;P1;durP2;ratioP2;P2;SDS_P1;SDS_P2;PMS_P1;PMS_P2;Temp;Humidity;BMP_temperature;BMP_pressure;BME280_temperature;BME280_humidity;BME280_pressure;Samples;Min_cycle;Max_cycle;Signal;HPM_P1;HPM_P2
2024/03/12 00:01:40;;;;;;;34.70;22.60;;;;;;;9.64;86.16;99546.83;128742;1257;113498;-62
2024/03/12 00:04:46;;;;;;;33.00;24.30;;;;;;;9.63;86.08;99548.33;128877;1251;127751;-63
2024/03/12 00:07:51;;;;;;;34.30;23.10;;;;;;;9.62;86.11;99550.52;128842;1259;114764;-62
2024/03/12 00:10:58;;;;;;;37.40;24.80;;;;;;;9.61;86.25;99549.85;128916;1256;113497;-62
2024/03/12 00:14:04;;;;;;;37.30;25.10;;;;;;;9.60;86.45;99548.14;128949;1251;113137;-62
2024/03/12 00:17:08;;;;;;;39.20;25.40;;;;;;;9.60;86.33;99551.90;131935;1255;114660;-62
2024/03/12 00:20:17;;;;;;;37.90;25.70;;;;;;;9.60;86.36;99552.05;128762;1251;126716;-63
2024/03/12 00:23:28;;;;;;;34.70;21.60;;;;;;;9.62;86.47;99549.80;128910;1256;114711;-62
2024/03/12 00:26:37;;;;;;;38.00;24.00;;;;;;;9.64;86.38;99548.27;128828;1256;113173;-63
2024/03/12 00:29:42;;;;;;;35.90;23.60;;;;;;;9.65;86.31;99551.04;128896;1256;113171;-63
2024/03/12 00:32:47;;;;;;;30.20;21.20;;;;;;;9.68;86.38;99549.12;131886;1251;114655;-62
2024/03/12 00:35:58;;;;;;;40.20;24.50;;;;;;;9.67;86.21;99548.29;128859;1253;128729;-64
2024/03/12 00:39:10;;;;;;;34.30;20.00;;;;;;;9.69;86.44;99549.20;128904;1256;114687;-63
2024/03/12 00:42:19;;;;;;;37.60;22.20;;;;;;;9.69;86.21;99550.12;128908;1251;113330;-63
2024/03/12 00:45:36;;;;;;;31.70;23.40;;;;;;;9.69;86.33;99554.35;128863;1256;113321;-61
2024/03/12 00:48:42;;;;;;;29.90;18.50;;;;;;;9.71;86.35;99551.43;128776;1259;113976;-62
2024/03/12 00:51:50;;;;;;;37.70;24.10;;;;;;;9.67;86.36;99558.21;129010;1264;128601;-62
2024/03/12 00:54:54;;;;;;;;;;;;;;;9.66;86.26;99556.50;128875;1251;113500;-63
2024/03/12 00:58:00;;;;;;;38.00;23.60;;;;;;;9.65;86.25;99557.46;128993;1257;113171;-65
2024/03/12 01:01:06;;;;;;;37.70;24.70;;;;;;;9.66;86.42;99554.03;129035;1255;113483;-62
2024/03/12 01:04:16;;;;;;;39.50;26.00;;;;;;;9.68;86.52;99558.34;129008;1256;113322;-65
2024/03/12 01:07:27;;;;;;;38.90;25.30;;;;;;;9.70;86.49;99556.32;129104;1256;127658;-64
2024/03/12 01:10:34;;;;;;;41.80;24.60;;;;;;;9.72;86.48;99553.67;128430;1256;643965;-69
2024/03/12 01:13:39;;;;;;;37.90;24.50;;;;;;;9.73;86.65;99549.87;132051;1255;114728;-63
2024/03/12 01:16:45;;;;;;;33.40;23.30;;;;;;;9.75;86.43;99553.17;128985;1256;113233;-63
2024/03/12 01:19:50;;;;;;;37.00;23.30;;;;;;;9.76;86.37;99552.24;129203;1274;113254;-66
2024/03/12 01:22:57;;;;;;;39.20;25.60;;;;;;;9.75;86.49;99551.54;129164;1251;128623;-66
2024/03/12 01:26:06;;;;;;;35.70;23.70;;;;;;;9.76;86.44;99550.04;129085;1255;114741;-62
2024/03/12 01:29:18;;;;;;;35.20;24.80;;;;;;;9.77;86.52;99553.55;129050;1251;114919;-65
2024/03/12 01:32:21;;;;;;;38.30;25.50;;;;;;;9.77;86.62;99551.95;132051;1251;114527;-63
2024/03/12 01:35:30;;;;;;;38.70;24.80;;;;;;;9.78;86.75;99554.05;131938;1251;114714;-64
2024/03/12 01:38:40;;;;;;;36.40;24.20;;;;;;;9.78;86.75;99554.95;128961;1274;128377;-62
2024/03/12 01:41:46;;;;;;;37.90;25.10;;;;;;;9.77;86.90;99549.45;128897;1256;114689;-63
2024/03/12 01:44:52;;;;;;;37.30;26.50;;;;;;;9.76;86.80;99546.30;128923;1258;113467;-61
2024/03/12 01:47:58;;;;;;;37.50;23.20;;;;;;;9.76;86.87;99542.42;128900;1256;113440;-62
2024/03/12 01:51:08;;;;;;;35.60;24.60;;;;;;;9.74;86.79;99543.02;128998;1259;114021;-63
2024/03/12 01:54:16;;;;;;;34.70;22.80;;;;;;;9.73;87.10;99540.77;128857;1251;128735;-63
2024/03/12 01:57:23;;;;;;;38.10;24.30;;;;;;;9.72;86.97;99541.17;128837;1256;114693;-62
2024/03/12 02:00:31;;;;;;;36.90;24.60;;;;;;;9.71;87.13;99540.36;128842;1251;113485;-62
2024/03/12 02:03:38;;;;;;;37.00;24.80;;;;;;;9.68;87.16;99540.86;128685;1256;113321;-62
2024/03/12 02:06:44;;;;;;;37.10;24.40;;;;;;;9.67;87.05;99544.50;129053;1256;113211;-62
2024/03/12 02:09:51;;;;;;;36.50;22.80;;;;;;;9.64;87.19;99543.79;128796;1251;127980;-62
2024/03/12 02:12:57;;;;;;;34.40;21.80;;;;;;;9.61;87.35;99547.86;128805;1256;114744;-63
2024/03/12 02:16:12;;;;;;;32.20;21.40;;;;;;;9.57;87.29;99551.52;128922;1256;114702;-63
2024/03/12 02:19:27;;;;;;;33.50;24.20;;;;;;;9.52;87.37;99550.89;129000;1254;113522;-63
2024/03/12 02:22:31;;;;;;;37.90;22.70;;;;;;;9.49;87.33;99553.73;131899;1251;113219;-63
2024/03/12 02:25:39;;;;;;;42.60;26.90;;;;;;;9.47;87.31;99555.11;128894;1274;127704;-63
2024/03/12 02:28:43;;;;;;;36.30;26.00;;;;;;;9.45;87.57;99552.73;128853;1255;115147;-61
2024/03/12 02:31:52;;;;;;;39.10;23.40;;;;;;;9.42;87.58;99554.67;128866;1256;113193;-62
2024/03/12 02:34:59;;;;;;;;;;;;;;;9.39;87.55;99555.38;128963;1251;113554;-65
2024/03/12 02:38:08;;;;;;;40.50;26.40;;;;;;;9.37;87.54;99553.71;128866;1274;113207;-63
2024/03/12 02:41:13;;;;;;;41.30;26.50;;;;;;;9.36;87.85;99553.92;128772;1264;127977;-63
2024/03/12 02:44:21;;;;;;;38.70;25.30;;;;;;;9.37;87.95;99554.98;128837;1251;114684;-62
2024/03/12 02:47:28;;;;;;;41.30;24.90;;;;;;;9.38;88.01;99555.63;128902;1255;113353;-63
2024/03/12 02:50:35;;;;;;;40.00;25.40;;;;;;;9.37;87.97;99553.00;128876;1254;113458;-63
2024/03/12 02:53:41;;;;;;;38.30;24.00;;;;;;;9.36;88.03;99551.09;128927;1251;113337;-61
2024/03/12 02:56:48;;;;;;;37.80;22.60;;;;;;;9.34;88.18;99551.19;128885;1256;128007;-62
2024/03/12 02:59:59;;;;;;;;;;;;;;;9.30;87.87;99550.52;129078;1258;114655;-62
2024/03/12 03:03:11;;;;;;;34.90;23.20;;;;;;;9.26;88.23;99554.88;128757;1251;113442;-64
2024/03/12 03:06:17;;;;;;;38.00;23.90;;;;;;;9.21;88.40;99551.90;128868;1251;113262;-62
2024/03/12 03:09:21;;;;;;;39.10;26.10;;;;;;;9.17;88.42;99553.58;128816;1274;113539;-63
2024/03/12 03:12:27;;;;;;;39.00;24.60;;;;;;;9.13;88.70;99552.89;128849;1258;128710;-62
2024/03/12 03:15:33;;;;;;;38.80;24.90;;;;;;;9.11;88.97;99559.27;128865;1256;114690;-62
2024/03/12 03:18:38;;;;;;;39.10;23.70;;;;;;;9.07;88.77;99556.26;128807;1252;113294;-62
2024/03/12 03:21:44;;;;;;;42.20;24.60;;;;;;;9.05;89.08;99560.11;128971;1256;113500;-63
2024/03/12 03:24:49;;;;;;;42.50;26.70;;;;;;;9.04;88.98;99561.40;129184;1259;113328;-63
2024/03/12 03:28:00;;;;;;;42.60;25.00;;;;;;;9.04;89.01;99561.98;128809;1273;129109;-62
2024/03/12 03:31:06;;;;;;;39.70;25.60;;;;;;;9.03;89.11;99565.05;128873;1256;114687;-63
2024/03/12 03:34:12;;;;;;;38.20;26.70;;;;;;;9.00;89.14;99562.89;128897;1258;113767;-62
2024/03/12 03:37:21;;;;;;;41.70;25.80;;;;;;;8.98;89.26;99566.36;128892;1258;113496;-62
2024/03/12 03:40:25;;;;;;;41.70;27.30;;;;;;;8.98;89.49;99567.08;128932;1274;113961;-61
2024/03/12 03:43:30;;;;;;;40.30;26.60;;;;;;;8.98;89.36;99571.89;128910;1251;127776;-62
2024/03/12 03:46:36;;;;;;;41.50;25.60;;;;;;;8.96;89.52;99573.73;128838;1264;114696;-61
2024/03/12 03:49:47;;;;;;;46.50;27.70;;;;;;;8.97;89.37;99581.60;128831;1253;113403;-61
2024/03/12 03:52:54;;;;;;;39.70;25.90;;;;;;;8.95;89.44;99588.08;128814;1260;113426;-61
2024/03/12 03:55:58;;;;;;;38.90;25.00;;;;;;;8.96;89.53;99586.45;128863;1256;113449;-61
2024/03/12 03:59:05;;;;;;;44.20;27.40;;;;;;;8.96;89.63;99590.54;128727;1264;127900;-61
2024/03/12 04:02:20;;;;;;;41.50;27.10;;;;;;;8.97;89.77;99589.19;128820;1259;115343;-62
2024/03/12 04:05:27;;;;;;;45.60;25.10;;;;;;;8.98;89.84;99588.44;128849;1251;113309;-62
2024/03/12 04:08:31;;;;;;;42.30;25.70;;;;;;;8.99;89.71;99587.88;128881;1257;113210;-62
2024/03/12 04:11:35;;;;;;;44.10;27.20;;;;;;;9.01;89.96;99588.13;128873;1251;116148;-62
2024/03/12 04:14:41;;;;;;;42.90;26.40;;;;;;;9.01;89.86;99587.23;129121;1267;128761;-62
2024/03/12 04:17:48;;;;;;;43.60;27.20;;;;;;;8.99;89.73;99584.30;128842;1258;113269;-61
2024/03/12 04:20:56;;;;;;;40.10;26.80;;;;;;;8.98;89.96;99581.70;128885;1251;113343;-62
2024/03/12 04:24:01;;;;;;;43.80;28.20;;;;;;;8.98;89.96;99585.79;129075;1255;113346;-62
2024/03/12 04:27:06;;;;;;;43.70;27.00;;;;;;;8.98;90.11;99586.67;129015;1257;113222;-62
2024/03/12 04:30:13;;;;;;;45.50;27.00;;;;;;;8.98;90.19;99586.50;129246;1274;128743;-62
2024/03/12 04:33:18;;;;;;;43.00;26.80;;;;;;;8.98;90.03;99590.41;129104;1256;114687;-62
2024/03/12 04:36:27;;;;;;;42.20;25.40;;;;;;;8.96;89.93;99596.02;128855;1251;113457;-63
2024/03/12 04:39:33;;;;;;;38.90;26.00;;;;;;;8.96;90.18;99596.77;131946;1251;114516;-61
2024/03/12 04:42:43;;;;;;;43.50;28.60;;;;;;;8.95;90.20;99598.04;128886;1272;113463;-62
2024/03/12 04:45:48;;;;;;;41.90;28.70;;;;;;;8.95;90.23;99605.69;128795;1274;128670;-62
2024/03/12 04:48:53;;;;;;;41.60;27.50;;;;;;;8.96;90.34;99608.54;128856;1256;114684;-62
2024/03/12 04:52:01;;;;;;;40.60;25.00;;;;;;;8.96;90.27;99612.77;128868;1251;113470;-62
2024/03/12 04:55:09;;;;;;;40.90;25.10;;;;;;;8.97;90.49;99612.73;128892;1252;113206;-62
2024/03/12 04:58:17;;;;;;;45.30;25.90;;;;;;;8.96;90.31;99619.21;128905;1256;113406;-61
2024/03/12 05:01:24;;;;;;;42.70;27.20;;;;;;;8.93;90.42;99617.05;128763;1274;128618;-63
2024/03/12 05:04:29;;;;;;;45.90;26.70;;;;;;;8.91;90.57;99618.02;129942;1251;114736;-62
2024/03/12 05:07:37;;;;;;;47.00;27.70;;;;;;;8.90;90.82;99618.08;131088;1257;113503;-63
2024/03/12 05:10:43;;;;;;;42.70;27.20;;;;;;;8.89;90.64;99619.77;128781;1256;113319;-62
2024/03/12 05:13:47;;;;;;;47.40;29.00;;;;;;;8.85;90.55;99622.98;128771;1257;113515;-63
2024/03/12 05:16:51;;;;;;;49.30;29.50;;;;;;;8.83;90.72;99626.86;131963;1251;128813;-62
2024/03/12 05:20:00;;;;;;;47.70;28.80;;;;;;;8.78;90.98;99627.60;128787;1257;114881;-63
2024/03/12 05:23:10;;;;;;;50.50;27.40;;;;;;;8.76;90.80;99630.97;131860;1256;113190;-63
2024/03/12 05:26:18;;;;;;;48.60;29.10;;;;;;;8.74;90.93;99633.55;128812;1251;113965;-64
2024/03/12 05:29:26;;;;;;;55.30;33.20;;;;;;;8.73;91.13;99639.27;131934;1255;114718;-64
2024/03/12 05:32:28;;;;;;;54.40;32.90;;;;;;;8.72;91.12;99643.06;131918;1251;128713;-65
2024/03/12 05:35:33;;;;;;;50.90;31.40;;;;;;;8.70;91.13;99646.05;131889;1251;114635;-64
2024/03/12 05:49:02;;;;;;;57.30;32.00;;;;;;;8.65;91.10;99663.01;128785;1257;129093;-62
2024/03/12 05:52:11;;;;;;;58.00;33.00;;;;;;;8.63;91.47;99662.23;128783;1259;114700;-63
2024/03/12 05:55:16;;;;;;;57.80;34.40;;;;;;;8.64;91.19;99666.64;128943;1254;113670;-63
2024/03/12 05:58:21;;;;;;;61.90;35.50;;;;;;;8.62;91.47;99667.77;128935;1256;113479;-63
2024/03/12 06:01:26;;;;;;;;;;;;;;;8.61;91.37;99671.23;131962;1252;113146;-61
2024/03/12 06:04:34;;;;;;;60.30;32.60;;;;;;;8.59;91.75;99676.13;128918;1251;127829;-63
2024/03/12 06:07:48;;;;;;;62.10;34.20;;;;;;;8.57;91.50;99674.30;128937;1256;114811;-62
2024/03/12 06:10:56;;;;;;;59.90;35.20;;;;;;;8.56;91.83;99677.91;128844;1257;113301;-61
2024/03/12 06:14:05;;;;;;;53.90;34.30;;;;;;;8.56;91.80;99677.02;128843;1258;113596;-63
2024/03/12 06:17:13;;;;;;;52.40;31.60;;;;;;;8.56;91.66;99677.38;128950;1256;114469;-63
2024/03/12 06:20:24;;;;;;;54.10;33.80;;;;;;;8.54;91.73;99681.20;128856;1257;129010;-63
2024/03/12 06:23:31;;;;;;;50.10;28.90;;;;;;;8.54;91.99;99684.39;128872;1256;114696;-62
2024/03/12 06:26:37;;;;;;;44.70;29.30;;;;;;;8.54;91.90;99686.91;128945;1253;113241;-62
2024/03/12 06:29:42;;;;;;;52.20;30.10;;;;;;;8.54;91.94;99689.59;129061;1257;113571;-62
2024/03/12 06:32:47;;;;;;;52.70;29.90;;;;;;;8.53;92.21;99693.20;128968;1257;114599;-63
2024/03/12 06:35:55;;;;;;;51.40;33.90;;;;;;;8.53;92.30;99690.51;129050;1256;128672;-62
2024/03/12 06:39:05;;;;;;;53.00;29.80;;;;;;;8.54;92.05;99697.73;128916;1274;114896;-63
2024/03/12 06:42:13;;;;;;;46.90;29.10;;;;;;;8.55;92.12;99701.99;129050;1256;113402;-64
2024/03/12 06:45:19;;;;;;;;;;;;;;;8.54;92.19;99705.09;129022;1264;113309;-62
2024/03/12 06:48:47;;;;;;;51.40;31.30;;;;;;;8.50;92.19;99708.97;128950;1263;114699;-63
2024/03/12 06:52:08;;;;;;;53.10;29.40;;;;;;;8.52;92.60;99710.16;129066;1257;127694;-64
2024/03/12 06:55:23;;;;;;;49.20;30.70;;;;;;;8.54;92.21;99713.77;129000;1251;114699;-63
2024/03/12 06:58:33;;;;;;;49.20;29.10;;;;;;;8.57;92.58;99717.74;128861;1257;113745;-71
2024/03/12 07:01:41;;;;;;;50.80;30.00;;;;;;;8.59;92.69;99719.95;128946;1251;113546;-69
2024/03/12 07:04:48;;;;;;;51.70;29.80;;;;;;;8.59;92.34;99723.15;129000;1256;114283;-67
2024/03/12 07:07:56;;;;;;;52.10;29.70;;;;;;;8.59;92.21;99730.25;128990;1251;127760;-70
2024/03/12 07:11:07;;;;;;;51.50;28.70;;;;;;;8.59;92.33;99735.07;128802;1259;114837;-68
2024/03/12 07:14:30;;;;;;;55.50;31.80;;;;;;;8.55;92.28;99736.88;129151;1256;113263;-70
2024/03/12 07:17:37;;;;;;;50.00;30.20;;;;;;;8.55;92.23;99742.05;129134;1257;113235;-64
2024/03/12 07:20:46;;;;;;;59.30;32.30;;;;;;;8.55;92.47;99741.52;129164;1257;113245;-70
2024/03/12 07:23:55;;;;;;;54.60;30.70;;;;;;;8.56;92.47;99740.59;129240;1251;127346;-64
2024/03/12 07:27:00;;;;;;;44.90;27.00;;;;;;;8.56;92.61;99740.40;128933;1268;114955;-61
2024/03/12 07:30:12;;;;;;;52.90;31.10;;;;;;;8.56;92.74;99743.23;129343;1251;114694;-62
2024/03/12 07:33:20;;;;;;;55.30;30.40;;;;;;;8.58;92.71;99746.67;128750;1252;113579;-61
2024/03/12 07:36:31;;;;;;;56.10;28.00;;;;;;;8.60;92.70;99749.23;129373;1256;114076;-63
2024/03/12 07:39:38;;;;;;;50.40;28.50;;;;;;;8.60;92.69;99750.52;128905;1257;127946;-63
2024/03/12 07:42:46;;;;;;;50.20;28.40;;;;;;;8.59;92.56;99751.45;129089;1266;115153;-63
2024/03/12 07:45:49;;;;;;;52.00;27.90;;;;;;;8.59;92.63;99749.86;131892;1255;113198;-63
2024/03/12 07:48:57;;;;;;;51.70;28.10;;;;;;;8.58;92.63;99756.84;128900;1255;114693;-61
2024/03/12 07:52:13;;;;;;;47.00;27.10;;;;;;;8.56;92.62;99754.77;128826;1257;114712;-62
2024/03/12 07:55:18;;;;;;;53.50;30.30;;;;;;;8.54;92.59;99759.70;128799;1257;127999;-63
2024/03/12 07:58:30;;;;;;;53.30;29.20;;;;;;;8.53;92.77;99762.96;128917;1261;114705;-62
2024/03/12 08:01:39;;;;;;;55.90;29.10;;;;;;;8.55;93.12;99763.58;128838;1260;114295;-66
2024/03/12 08:04:50;;;;;;;56.70;31.30;;;;;;;8.57;92.90;99763.09;128999;1251;113112;-60
2024/03/12 08:07:57;;;;;;;48.70;27.60;;;;;;;8.59;92.89;99765.70;128876;1257;113392;-63
2024/03/12 08:11:05;;;;;;;53.40;29.10;;;;;;;8.60;93.03;99767.43;128656;1251;127749;-63
2024/03/12 08:14:13;;;;;;;54.30;29.20;;;;;;;8.62;93.25;99768.58;128820;1256;114858;-63
2024/03/12 08:17:22;;;;;;;53.60;29.20;;;;;;;8.64;93.21;99769.34;128915;1255;113463;-61
2024/03/12 08:20:27;;;;;;;50.40;28.70;;;;;;;8.65;93.29;99771.79;128804;1260;113620;-62
2024/03/12 08:23:34;;;;;;;47.20;26.30;;;;;;;8.65;92.96;99779.09;128899;1267;114611;-61
2024/03/12 08:26:39;;;;;;;49.70;26.50;;;;;;;8.63;93.01;99781.85;128794;1264;128879;-61
2024/03/12 08:29:44;;;;;;;58.20;31.00;;;;;;;8.62;92.94;99785.97;128943;1257;114683;-62
2024/03/12 08:32:50;;;;;;;50.70;28.50;;;;;;;8.62;92.84;99784.56;128816;1251;113383;-62
2024/03/12 08:35:58;;;;;;;54.30;28.90;;;;;;;8.62;93.04;99784.59;128911;1257;115317;-62
2024/03/12 08:39:04;;;;;;;53.00;29.60;;;;;;;8.63;93.22;99787.71;128996;1261;113454;-62
2024/03/12 08:42:12;;;;;;;49.50;26.00;;;;;;;8.63;93.04;99791.45;128995;1257;127857;-62
2024/03/12 08:45:21;;;;;;;44.10;25.00;;;;;;;8.64;93.02;99791.25;129048;1264;114697;-62
2024/03/12 08:48:33;;;;;;;53.40;29.70;;;;;;;8.64;93.14;99793.18;128863;1258;113250;-62
2024/03/12 08:51:39;;;;;;;39.40;23.00;;;;;;;8.66;93.01;99793.46;129072;1251;113265;-61
2024/03/12 08:54:44;;;;;;;45.70;25.50;;;;;;;8.66;93.15;99793.65;128930;1256;113436;-62
2024/03/12 08:57:53;;;;;;;43.70;26.40;;;;;;;8.68;93.27;99796.39;128949;1253;128992;-61
2024/03/12 09:01:00;;;;;;;47.40;26.80;;;;;;;8.70;93.24;99802.50;128872;1264;114681;-62
2024/03/12 09:04:08;;;;;;;46.10;26.60;;;;;;;8.73;93.31;99805.04;129022;1251;113248;-61
2024/03/12 09:07:14;;;;;;;44.00;27.70;;;;;;;8.77;93.27;99807.52;129062;1259;114613;-63
2024/03/12 09:10:19;;;;;;;44.40;24.20;;;;;;;8.82;93.47;99807.64;128944;1260;113175;-60
2024/03/12 09:13:25;;;;;;;46.60;24.20;;;;;;;8.83;93.25;99811.48;128861;1272;127869;-62
2024/03/12 09:16:37;;;;;;;47.00;26.60;;;;;;;8.87;93.22;99814.83;128943;1257;114873;-63
2024/03/12 09:19:48;;;;;;;;;;;;;;;8.92;93.40;99817.96;129091;1257;115599;-62
2024/03/12 09:22:55;;;;;;;44.90;26.10;;;;;;;8.97;93.44;99818.08;128963;1257;113535;-62
2024/03/12 09:26:00;;;;;;;37.90;22.40;;;;;;;9.03;93.31;99823.48;128787;1255;113338;-62
2024/03/12 09:29:06;;;;;;;;;;;;;;;9.06;93.14;99819.95;128954;1257;127694;-62
2024/03/12 09:32:10;;;;;;;44.00;24.50;;;;;;;9.06;93.15;99821.70;128993;1264;114692;-62
2024/03/12 09:35:18;;;;;;;44.60;24.30;;;;;;;9.07;92.99;99824.86;128910;1251;113259;-62
2024/03/12 09:38:23;;;;;;;46.50;26.60;;;;;;;9.13;93.25;99827.77;128910;1251;113321;-62
2024/03/12 09:41:28;;;;;;;42.20;26.00;;;;;;;9.26;93.77;99829.08;128915;1274;113189;-63
2024/03/12 09:44:35;;;;;;;40.20;23.10;;;;;;;9.36;93.33;99825.20;128774;1274;128200;-62
2024/03/12 09:47:44;;;;;;;36.70;20.90;;;;;;;9.39;93.11;99830.02;128727;1261;114770;-62
2024/03/12 09:50:50;;;;;;;42.10;23.20;;;;;;;9.40;93.06;99831.23;129004;1251;113316;-64
2024/03/12 09:53:56;;;;;;;39.80;24.50;;;;;;;9.45;93.17;99831.69;129164;1257;113198;-67
2024/03/12 09:57:01;;;;;;;36.60;22.20;;;;;;;9.51;93.27;99835.64;129024;1274;113175;-66
2024/03/12 10:00:12;;;;;;;38.60;23.30;;;;;;;9.55;93.21;99835.08;128787;1256;128706;-66
2024/03/12 10:03:18;;;;;;;33.90;20.70;;;;;;;9.61;93.10;99844.00;128863;1257;114718;-69
2024/03/12 10:06:26;;;;;;;33.90;20.00;;;;;;;9.63;92.47;99844.30;129100;1251;113177;-69
2024/03/12 10:09:32;;;;;;;30.90;17.80;;;;;;;9.61;92.24;99845.46;128898;1260;113219;-71
2024/03/12 10:12:40;;;;;;;32.40;19.20;;;;;;;9.59;92.34;99842.87;128890;1260;113460;-68
2024/03/12 10:15:56;;;;;;;38.40;19.50;;;;;;;9.59;92.24;99845.04;129095;1256;127936;-68
2024/03/12 10:19:17;;;;;;;28.80;17.40;;;;;;;9.61;92.43;99846.69;128926;1251;115244;-66
2024/03/12 10:22:22;;;;;;;35.20;20.70;;;;;;;9.62;92.18;99848.97;129055;1254;113461;-71
2024/03/12 10:25:35;;;;;;;38.50;21.60;;;;;;;9.58;92.38;99852.75;129105;1251;115252;-61
2024/03/12 10:28:41;;;;;;;;;;;;;;;9.56;92.48;99852.65;128799;1251;113852;-61
2024/03/12 10:31:47;;;;;;;51.00;26.60;;;;;;;9.57;92.83;99852.80;129009;1256;126696;-61
2024/03/12 10:34:53;;;;;;;42.20;24.20;;;;;;;9.61;93.07;99855.08;128908;1274;114708;-62
2024/03/12 10:37:58;;;;;;;40.70;22.70;;;;;;;9.65;92.67;99852.71;128930;1251;113473;-61
2024/03/12 10:41:21;;;;;;;45.90;24.40;;;;;;;9.62;92.28;99859.49;128923;1251;113604;-63
2024/03/12 10:44:36;;;;;;;44.60;23.20;;;;;;;9.63;92.54;99863.53;128724;1257;114667;-61
2024/03/12 10:47:45;;;;;;;49.80;26.80;;;;;;;9.64;92.41;99863.48;128867;1257;128440;-61
2024/03/12 10:50:57;;;;;;;52.80;25.30;;;;;;;9.64;92.89;99869.89;128838;1257;114668;-61
2024/03/12 10:54:05;;;;;;;51.20;26.00;;;;;;;9.65;92.58;99867.34;128828;1258;113203;-63
2024/03/12 10:57:17;;;;;;;53.80;29.00;;;;;;;9.64;92.25;99870.80;128888;1258;114712;-62
2024/03/12 11:00:28;;;;;;;54.90;27.30;;;;;;;9.65;92.52;99872.55;128940;1274;113466;-61
2024/03/12 11:03:37;;;;;;;54.40;28.60;;;;;;;9.64;92.51;99874.34;128841;1257;128736;-61
2024/03/12 11:06:42;;;;;;;57.00;30.70;;;;;;;9.69;92.91;99876.41;128903;1256;114690;-62
2024/03/12 11:09:47;;;;;;;58.70;29.60;;;;;;;9.75;92.77;99875.59;128944;1251;113364;-62
2024/03/12 11:12:54;;;;;;;;;;;;;;;9.77;92.36;99871.88;129021;1251;116328;-62
2024/03/12 11:16:17;;;;;;;56.70;30.10;;;;;;;9.80;92.36;99873.18;128852;1251;113572;-62
2024/03/12 11:19:29;;;;;;;50.60;27.90;;;;;;;9.80;92.29;99872.05;128861;1274;127884;-60
2024/03/12 11:22:35;;;;;;;59.70;28.50;;;;;;;9.82;92.40;99874.33;128875;1256;114693;-61
2024/03/12 11:25:45;;;;;;;57.70;28.40;;;;;;;9.89;92.83;99872.52;128916;1251;113228;-61
2024/03/12 11:28:54;;;;;;;54.50;30.00;;;;;;;9.94;92.58;99873.31;128886;1254;113207;-61
2024/03/12 11:31:58;;;;;;;59.80;32.00;;;;;;;9.96;92.65;99872.67;128877;1257;113549;-62
2024/03/12 11:35:08;;;;;;;53.30;29.70;;;;;;;9.98;92.30;99875.61;128879;1274;128763;-60
2024/03/12 11:38:15;;;;;;;50.90;29.70;;;;;;;10.03;92.60;99874.58;128710;1259;114880;-62
2024/03/12 11:41:27;;;;;;;53.30;30.40;;;;;;;10.10;92.83;99875.84;128830;1259;113270;-62
2024/03/12 11:44:54;;;;;;;50.10;27.10;;;;;;;10.23;92.66;99871.02;128956;1257;113200;-62
2024/03/12 11:48:07;;;;;;;46.50;25.10;;;;;;;10.35;92.64;99870.92;128885;1251;113212;-62
2024/03/12 11:51:14;;;;;;;43.30;24.00;;;;;;;10.43;92.28;99872.81;128773;1251;127692;-63
2024/03/12 11:54:44;;;;;;;42.10;23.40;;;;;;;10.49;91.65;99875.53;128890;1260;114961;-62
2024/03/12 11:57:57;;;;;;;38.20;22.30;;;;;;;10.55;91.79;99878.22;128936;1251;113262;-61
2024/03/12 12:01:01;;;;;;;38.30;21.60;;;;;;;10.58;91.48;99875.41;128868;1254;113442;-61
2024/03/12 12:04:07;;;;;;;35.80;22.20;;;;;;;10.57;91.02;99875.95;128813;1259;113970;-61
2024/03/12 12:07:15;;;;;;;39.00;23.60;;;;;;;10.59;90.86;99874.40;128767;1251;127769;-62
2024/03/12 12:10:23;;;;;;;41.20;24.70;;;;;;;10.66;91.09;99877.95;128886;1251;114674;-62
2024/03/12 12:13:32;;;;;;;35.30;22.80;;;;;;;10.74;90.62;99873.20;128826;1251;113465;-61
2024/03/12 12:16:41;;;;;;;40.20;24.90;;;;;;;10.83;91.42;99874.46;128852;1257;113147;-63
2024/03/12 12:20:13;;;;;;;37.00;24.20;;;;;;;10.95;91.43;99872.55;128951;1251;114760;-64
2024/03/12 12:23:23;;;;;;;38.20;23.20;;;;;;;11.04;90.87;99870.23;128740;1274;129433;-62
2024/03/12 12:26:30;;;;;;;44.00;25.80;;;;;;;11.08;90.36;99871.30;128852;1259;114459;-64
2024/03/12 12:29:39;;;;;;;41.70;25.50;;;;;;;11.14;90.63;99872.70;128853;1251;113179;-63
2024/03/12 12:32:49;;;;;;;39.60;23.80;;;;;;;11.11;89.96;99874.66;128908;1257;113215;-63
2024/03/12 12:35:56;;;;;;;42.40;25.60;;;;;;;11.06;89.82;99876.38;128883;1257;113161;-63
2024/03/12 12:39:04;;;;;;;39.70;25.40;;;;;;;11.03;89.92;99873.86;128940;1266;128870;-62
2024/03/12 12:42:12;;;;;;;41.50;24.80;;;;;;;11.04;89.95;99879.20;128839;1257;114795;-62
2024/03/12 12:45:17;;;;;;;41.40;24.10;;;;;;;11.06;89.99;99878.17;128860;1255;113123;-62
2024/03/12 12:48:27;;;;;;;43.10;25.30;;;;;;;11.06;89.79;99883.52;128839;1251;113158;-62
2024/03/12 12:51:32;;;;;;;43.50;26.40;;;;;;;11.07;89.93;99881.85;128842;1256;113488;-63
2024/03/12 12:54:42;;;;;;;40.10;25.30;;;;;;;11.06;89.87;99882.09;128931;1274;127691;-63
2024/03/12 12:57:59;;;;;;;43.40;28.00;;;;;;;11.03;89.30;99882.27;129057;1258;114510;-72
2024/03/12 13:01:10;;;;;;;42.30;25.90;;;;;;;10.99;89.24;99886.09;129110;1251;114874;-71
2024/03/12 13:04:24;;;;;;;38.20;25.00;;;;;;;10.97;89.14;99886.41;129161;1256;113292;-71
2024/03/12 13:07:36;;;;;;;40.70;25.70;;;;;;;10.92;88.96;99884.67;129020;1251;113203;-68
2024/03/12 13:10:41;;;;;;;39.10;23.80;;;;;;;10.89;89.04;99881.48;127018;1260;2811698;-65
2024/03/12 13:13:47;;;;;;;;;;;;;;;10.90;89.38;99885.89;129286;1251;114710;-71
2024/03/12 13:16:52;;;;;;;39.00;24.10;;;;;;;10.90;89.56;99888.38;129238;1251;113156;-69
2024/03/12 13:19:57;;;;;;;43.30;27.30;;;;;;;10.91;89.25;99886.54;128964;1257;113413;-70
2024/03/12 13:23:02;;;;;;;40.20;26.50;;;;;;;10.92;89.40;99884.15;129097;1274;113222;-61
2024/03/12 13:26:07;;;;;;;38.20;24.00;;;;;;;10.96;89.34;99888.94;129148;1251;129034;-70
2024/03/12 13:29:15;;;;;;;43.70;29.00;;;;;;;10.98;89.39;99887.61;129086;1251;114068;-62
2024/03/12 13:32:21;;;;;;;43.00;26.60;;;;;;;11.00;89.04;99892.64;129025;1251;113413;-63
2024/03/12 13:35:27;;;;;;;46.30;27.90;;;;;;;10.99;88.75;99894.89;129031;1257;113456;-62
2024/03/12 13:38:42;;;;;;;44.70;28.70;;;;;;;11.02;88.93;99895.56;128959;1255;113241;-62
2024/03/12 13:41:49;;;;;;;46.70;28.90;;;;;;;11.02;88.97;99899.30;128930;1274;128921;-61
2024/03/12 13:44:53;;;;;;;45.00;29.40;;;;;;;11.03;88.95;99903.36;128866;1251;113295;-61
2024/03/12 13:47:59;;;;;;;39.20;25.40;;;;;;;11.05;88.91;99902.34;129084;1251;113324;-61
2024/03/12 13:51:07;;;;;;;43.80;28.80;;;;;;;11.07;89.23;99904.05;128896;1255;113195;-61
2024/03/12 13:54:16;;;;;;;42.00;27.20;;;;;;;11.08;88.82;99903.08;128813;1256;113223;-62
2024/03/12 13:57:25;;;;;;;44.90;26.40;;;;;;;11.08;88.61;99903.95;128823;1274;128788;-62
2024/03/12 14:00:32;;;;;;;45.80;28.70;;;;;;;11.08;88.57;99903.09;129051;1257;114855;-61
2024/03/12 14:03:39;;;;;;;46.00;31.20;;;;;;;11.07;88.21;99901.16;128748;1257;113381;-62
2024/03/12 14:06:50;;;;;;;43.10;27.50;;;;;;;11.04;88.39;99896.14;128454;1257;113242;-62
2024/03/12 14:09:57;;;;;;;46.70;27.00;;;;;;;11.00;88.57;99897.66;128402;1262;114014;-62
2024/03/12 14:13:02;;;;;;;36.80;24.20;;;;;;;10.97;88.17;99902.83;128731;1257;127927;-62
2024/03/12 14:16:09;;;;;;;44.60;26.80;;;;;;;10.98;87.89;99901.55;128488;1262;114761;-62
2024/03/12 14:19:17;;;;;;;;;;;;;;;10.98;88.30;99904.73;128420;1256;114957;-62
2024/03/12 14:22:25;;;;;;;46.40;27.90;;;;;;;10.99;88.50;99904.52;128792;1259;114760;-61
2024/03/12 14:25:32;;;;;;;45.00;27.70;;;;;;;11.00;88.58;99912.10;128643;1257;113737;-62
2024/03/12 14:28:37;;;;;;;46.40;26.90;;;;;;;11.02;88.50;99909.52;128616;1264;126815;-62